M I D A S
Marine Information and Data Acquisition System
Tripno 1680 of the Zeeleeuw from 2009-04-23 11:40:05 to 2009-04-23 13:59:39
Back to CruiseResearch ActivitiesStationsMapUnderway DataData graphs

EquipmentUnitsComment
TimeDGPSUTC
LatitudeDGPSDM.mWGS84
LongitudeDGPSDM.mWGS84
TemperatureSBE03/SBE38deg celciusITS90
ConductivitySBE21S/mITS90
SalinitySBE21 Practical Salinity Units
ChlorophylAChelsea fluorimeterg/lCalibrated in Aceton
Missing or incorrect values are displayed as -999
Sea surface data collected by the RV Zeeleeuw from 2009-04-23 07:44:55 to 2009-04-23 14:07:14
Time Latitude Longitude Temperature Conductivity Salinity ChlorophylA
2009-04-23 07:46:03 51°13.678 2°55.898 -999 0.037577 0.20759 -1.035392
2009-04-23 07:47:03 51°13.69 2°55.821 -999 0.037474 0.207049 -1.035392
2009-04-23 07:48:02 51°13.693 2°55.759 -999 0.0384 0.212295 -1.035392
2009-04-23 07:49:00 51°13.704 2°55.761 -999 0.037474 0.207115 -1.035392
2009-04-23 07:50:00 51°13.716 2°55.754 -999 0.041179 0.228065 -1.035392
2009-04-23 07:51:00 51°13.787 2°55.674 -999 0.038297 0.211788 -1.035392
2009-04-23 07:51:59 51°13.895 2°55.58 -999 0.03768 0.208371 -1.035392
2009-04-23 07:52:59 51°14.021 2°55.489 -999 0.037268 0.206094 -1.035392
2009-04-23 07:54:00 51°14.156 2°55.387 -999 0.037783 0.209031 -1.035392
2009-04-23 07:55:00 51°14.271 2°55.239 -999 0.038297 0.211957 -1.035392
2009-04-23 07:56:00 51°14.367 2°55.043 -999 0.038709 0.214313 -1.035392
2009-04-23 07:56:59 51°14.443 2°54.804 -999 0.037165 0.205625 -1.035392
2009-04-23 07:58:00 51°14.522 2°54.537 -999 0.039532 0.219021 -1.035392
2009-04-23 07:59:00 51°14.582 2°54.364 -999 0.040561 0.224891 -1.035392
2009-04-23 08:00:00 51°14.643 2°54.165 -999 0.039429 0.21851 -1.035392
2009-04-23 08:01:00 51°14.726 2°53.899 -999 0.039018 0.216184 -1.035392
2009-04-23 08:01:59 51°14.814 2°53.618 -999 0.0384 0.212774 -1.035392
2009-04-23 08:03:00 51°14.904 2°53.327 -999 0.039532 0.21922 -1.035392
2009-04-23 08:04:00 51°14.988 2°53.035 -999 0.03768 0.208797 -1.035392
2009-04-23 08:05:00 51°15.073 2°52.743 -999 0.039429 0.218709 -1.035392
2009-04-23 08:05:59 51°15.157 2°52.453 -999 0.040664 0.225671 -1.035392
2009-04-23 08:07:00 51°15.241 2°52.152 -999 0.042208 0.234644 -1.035392
2009-04-23 08:07:59 51°15.322 2°51.86 -999 0.047147 0.263159 -1.035392
2009-04-23 08:09:00 51°15.331 2°51.536 -999 0.039635 0.220604 -1.035392
2009-04-23 08:10:00 51°15.264 2°51.23 -999 0.040253 0.224462 -1.070216
2009-04-23 08:11:00 51°15.21 2°51.033 -999 0.045192 0.252944 -1.035392
2009-04-23 08:12:00 51°15.163 2°50.922 -999 0.04334 0.24236 -1.035392
2009-04-23 08:12:59 51°15.12 2°50.858 -999 0.04334 0.2425 -1.035392
2009-04-23 08:14:00 51°15.078 2°50.824 -999 0.042722 0.238893 -1.035392
2009-04-23 08:14:59 51°15.036 2°50.801 -999 0.046736 0.26196 -1.035392
2009-04-23 08:16:00 51°14.994 2°50.783 -999 0.046016 0.25831 -1.035392
2009-04-23 08:17:00 51°14.939 2°50.76 -999 0.042002 0.235414 -1.035392
2009-04-23 08:18:00 51°14.878 2°50.717 -999 0.040561 0.227142 -1.035392
2009-04-23 08:19:00 51°14.821 2°50.656 -999 0.064539 0.366845 -1.035392
2009-04-23 08:20:00 51°14.773 2°50.586 -999 0.062172 0.352945 -1.035392
2009-04-23 08:21:00 51°14.73 2°50.514 -999 0.058159 0.329079 -1.035392
2009-04-23 08:22:00 51°14.69 2°50.445 -999 0.053219 0.300867 -1.035392
2009-04-23 08:23:00 51°14.65 2°50.377 -999 0.047971 0.270225 -1.035392
2009-04-23 08:24:00 51°14.612 2°50.308 -999 0.04972 0.280488 -1.035392
2009-04-23 08:25:00 51°14.573 2°50.24 -999 0.039224 0.219904 -1.035392
2009-04-23 08:26:00 51°14.534 2°50.172 -999 0.039018 0.218843 -1.035392
2009-04-23 08:27:00 51°14.496 2°50.104 -999 0.14852 0.874484 -0.826448
2009-04-23 08:28:00 51°14.464 2°50.03 -999 0.053425 0.302545 -0.965744
2009-04-23 08:29:00 51°14.431 2°49.95 -999 0.049926 0.282341 -0.965744
2009-04-23 08:30:00 51°14.396 2°49.868 -999 0.046942 0.26498 -0.965744
2009-04-23 08:30:59 51°14.361 2°49.785 -999 0.047045 0.265653 -0.93092
2009-04-23 08:32:00 51°14.326 2°49.701 -999 0.045501 0.256661 -0.965744
2009-04-23 08:33:00 51°14.29 2°49.618 -999 0.046736 0.263857 -0.93092
2009-04-23 08:34:00 51°14.254 2°49.535 -999 0.048074 0.271613 -0.965744
2009-04-23 08:35:00 51°14.219 2°49.453 -999 0.04406 0.248447 -0.965744
2009-04-23 08:36:00 51°14.183 2°49.371 -999 0.045913 0.259144 -0.965744
2009-04-23 08:37:00 51°14.147 2°49.29 -999 0.046736 0.263877 -0.965744
2009-04-23 08:38:00 51°14.114 2°49.207 -999 0.04406 0.248515 -0.965744
2009-04-23 08:39:00 51°14.082 2°49.123 -999 0.042208 0.237929 -0.965744
2009-04-23 08:40:00 51°14.052 2°49.039 -999 0.04406 0.248579 -0.965744
2009-04-23 08:41:00 51°14.021 2°48.957 -999 0.042311 0.238548 -0.965744
2009-04-23 08:42:00 51°13.99 2°48.876 -999 0.043649 0.246276 -0.965744
2009-04-23 08:43:00 51°13.96 2°48.797 -999 0.04159 0.234443 -0.965744
2009-04-23 08:44:00 51°13.93 2°48.717 -999 0.040767 0.229752 -0.965744
2009-04-23 08:45:00 51°13.9 2°48.637 -999 0.041179 0.232137 -0.965744
2009-04-23 08:46:00 51°13.871 2°48.558 -999 0.040356 0.227414 -0.965744
2009-04-23 08:47:00 51°13.841 2°48.479 -999 0.040356 0.227468 -0.965744
2009-04-23 08:48:00 51°13.812 2°48.399 -999 0.039841 0.224517 -0.965744
2009-04-23 08:49:00 51°13.786 2°48.32 -999 0.042105 0.237585 -0.965744
2009-04-23 08:50:00 51°13.766 2°48.242 -999 0.038709 0.218035 -0.965744
2009-04-23 08:51:00 51°13.75 2°48.161 -999 0.04015 0.226396 -0.965744
2009-04-23 08:52:00 51°13.742 2°48.086 -999 0.040664 0.229382 -0.965744
2009-04-23 08:53:00 51°13.738 2°48.023 -999 0.040561 0.228819 -0.965744
2009-04-23 08:54:00 51°13.734 2°47.97 -999 0.043134 0.243696 -0.965744
2009-04-23 08:55:00 51°13.73 2°47.93 -999 0.040664 0.229445 -0.965744
2009-04-23 08:56:00 51°13.726 2°47.89 -999 0.042208 0.238357 -0.965744
2009-04-23 08:57:00 51°13.751 2°47.83 -999 0.042928 0.24265 -0.965744
2009-04-23 08:58:00 51°13.844 2°47.857 -999 0.055895 0.318246 -0.965744
2009-04-23 08:59:00 51°14.01 2°47.932 -999 0.043443 0.245751 -0.965744
2009-04-23 09:00:00 51°14.194 2°48.048 -999 0.043752 0.247575 -0.965744
2009-04-23 09:01:00 51°14.378 2°48.179 -999 0.045089 0.255307 -0.965744
2009-04-23 09:02:00 51°14.561 2°48.318 -999 0.042928 0.242842 -0.965744
2009-04-23 09:03:00 51°14.749 2°48.444 -999 0.042002 0.23775 -0.965744
2009-04-23 09:04:00 51°14.937 2°48.571 -999 0.041693 0.235965 -0.965744
2009-04-23 09:05:00 51°15.118 2°48.699 -999 0.044369 0.251401 -0.965744
2009-04-23 09:06:00 51°15.28 2°48.821 -999 0.045604 0.258779 -0.965744
2009-04-23 09:07:00 51°15.437 2°48.943 -999 0.050338 0.286433 -0.965744
2009-04-23 09:08:00 51°15.591 2°49.066 -999 0.047971 0.272647 -0.965744
2009-04-23 09:09:00 51°15.728 2°49.266 -999 0.044781 0.25433 -0.965744
2009-04-23 09:10:00 51°15.881 2°49.464 -999 0.047765 0.27174 -0.965744
2009-04-23 09:11:00 51°16.023 2°49.58 -999 0.041488 0.23532 -0.965744
2009-04-23 09:12:00 51°16.15 2°49.667 -999 0.040561 0.229821 -0.965744
2009-04-23 09:13:00 51°16.276 2°49.757 -999 0.038812 0.219768 -0.965744
2009-04-23 09:14:00 51°16.385 2°49.878 -999 0.037268 0.210905 -0.965744
2009-04-23 09:15:00 51°16.441 2°50.003 -999 0.04087 0.23182 -0.965744
2009-04-23 09:16:00 51°16.376 2°50.084 -999 0.084916 0.49324 -0.965744
2009-04-23 09:17:00 51°16.283 2°50 -999 0.048177 0.274393 -0.965744
2009-04-23 09:18:00 51°16.299 2°49.87 -999 0.055586 0.31803 -0.965744
2009-04-23 09:19:00 51°16.362 2°49.975 -999 0.062893 0.36127 -0.965744
2009-04-23 09:20:00 51°16.28 2°50.075 -999 0.072155 0.416695 -0.965744
2009-04-23 09:21:00 51°16.147 2°50.111 -999 0.047353 0.269831 -0.965744
2009-04-23 09:22:00 51°16.061 2°50.168 -999 0.051881 0.296442 -0.965744
2009-04-23 09:23:00 51°16.056 2°50.191 -999 0.048383 0.27573 -0.965744
2009-04-23 09:24:00 51°16.054 2°50.212 -999 0.046221 0.263204 -0.965744
2009-04-23 09:25:03 51°16.053 2°50.236 -999 0.045604 0.259631 -1.000568
2009-04-23 09:26:03 51°16.051 2°50.26 -999 0.045192 0.257168 -0.965744
2009-04-23 09:27:03 51°16.049 2°50.286 -999 0.044884 0.255468 -0.965744
2009-04-23 09:28:00 51°16.046 2°50.31 -999 0.045295 0.257945 -0.965744
2009-04-23 09:29:00 51°16.043 2°50.335 -999 0.043031 0.244696 -0.965744
2009-04-23 09:30:00 51°16.04 2°50.359 -999 0.046839 0.266949 -0.965744
2009-04-23 09:31:00 51°16.036 2°50.385 -999 0.04334 0.246561 -0.965744
2009-04-23 09:32:00 51°16.027 2°50.412 -999 0.042208 0.239887 -0.965744
2009-04-23 09:33:00 51°16.007 2°50.44 -999 0.046427 0.264564 -0.965744
2009-04-23 09:34:00 51°15.98 2°50.473 -999 0.044678 0.254572 -1.000568
2009-04-23 09:35:00 51°15.945 2°50.514 -999 0.044266 0.252137 -0.965744
2009-04-23 09:36:00 51°15.897 2°50.58 -999 0.044472 0.253413 -0.965744
2009-04-23 09:37:00 51°15.854 2°50.685 -999 0.046016 0.262428 -0.965744
2009-04-23 09:38:00 51°15.817 2°50.811 -999 0.047662 0.272067 -0.965744
2009-04-23 09:39:00 51°15.777 2°50.94 -999 0.045501 0.259426 -0.965744
2009-04-23 09:40:00 51°15.739 2°51.07 -999 0.049412 0.282359 -0.965744
2009-04-23 09:41:00 51°15.699 2°51.201 -999 0.04334 0.246836 -0.965744
2009-04-23 09:42:00 51°15.661 2°51.33 -999 0.040047 0.227692 -0.965744
2009-04-23 09:43:00 51°15.626 2°51.459 -999 0.041385 0.235476 -0.965744
2009-04-23 09:44:00 51°15.597 2°51.587 -999 0.039327 0.22355 -0.965744
2009-04-23 09:45:00 51°15.583 2°51.725 -999 0.038915 0.221143 -0.965744
2009-04-23 09:46:00 51°15.576 2°51.868 -999 0.041179 0.234306 -0.965744
2009-04-23 09:47:00 51°15.567 2°52.011 -999 0.038915 0.221151 -0.965744
2009-04-23 09:48:00 51°15.557 2°52.155 -999 0.041693 0.237307 -0.965744
2009-04-23 09:49:00 51°15.548 2°52.3 -999 0.040459 0.230162 -0.965744
2009-04-23 09:50:00 51°15.539 2°52.445 -999 0.041076 0.233747 -0.965744
2009-04-23 09:51:00 51°15.528 2°52.59 -999 0.042208 0.240373 -0.965744
2009-04-23 09:51:59 51°15.519 2°52.733 -999 0.042517 0.242162 -0.965744
2009-04-23 09:52:59 51°15.509 2°52.878 -999 0.042208 0.240332 -0.965744
2009-04-23 09:53:59 51°15.5 2°53.025 -999 0.042105 0.239756 -1.000568
2009-04-23 09:54:59 51°15.49 2°53.17 -999 0.041796 0.237972 -1.000568
2009-04-23 09:55:59 51°15.469 2°53.306 -999 0.040253 0.229026 -0.965744
2009-04-23 09:57:00 51°15.436 2°53.429 -999 0.041796 0.238012 -0.965744
2009-04-23 09:58:00 51°15.404 2°53.552 -999 0.040767 0.232034 -0.965744
2009-04-23 09:58:59 51°15.374 2°53.676 -999 0.039944 0.227229 -0.965744
2009-04-23 09:59:59 51°15.345 2°53.801 -999 0.041179 0.234423 -0.965744
2009-04-23 10:01:00 51°15.318 2°53.918 -999 0.040973 0.233239 -1.000568
2009-04-23 10:02:00 51°15.282 2°54.028 -999 0.040561 0.230846 -0.965744
2009-04-23 10:02:59 51°15.216 2°54.126 -999 0.040973 0.233248 -1.000568
2009-04-23 10:03:59 51°15.132 2°54.232 -999 0.038297 0.21771 -0.965744
2009-04-23 10:05:00 51°15.046 2°54.338 -999 0.037783 0.214733 -0.965744
2009-04-23 10:05:59 51°14.958 2°54.441 -999 0.040973 0.233261 -0.965744
2009-04-23 10:07:00 51°14.865 2°54.549 -999 0.069685 0.402796 -0.896096
2009-04-23 10:07:59 51°14.776 2°54.652 -999 0.051058 0.292364 -0.896096
2009-04-23 10:08:59 51°14.684 2°54.758 -999 0.050647 0.289942 -0.861272
2009-04-23 10:10:00 51°14.588 2°54.859 -999 0.048177 0.275452 -0.896096
2009-04-23 10:10:59 51°14.494 2°54.96 -999 0.048588 0.27792 -0.896096
2009-04-23 10:12:00 51°14.398 2°55.076 -999 0.043855 0.250217 -0.896096
2009-04-23 10:12:59 51°14.307 2°55.193 -999 0.041693 0.237571 -0.896096
2009-04-23 10:13:59 51°14.22 2°55.317 -999 0.041385 0.2358 -0.896096
2009-04-23 10:15:00 51°14.127 2°55.411 -999 0.041385 0.235817 -0.896096
2009-04-23 10:16:00 51°14.027 2°55.485 -999 0.040047 0.228021 -0.896096
2009-04-23 10:16:59 51°13.928 2°55.556 -999 0.039944 0.227418 -0.896096
2009-04-23 10:17:59 51°13.827 2°55.63 -999 0.041796 0.238206 -0.896096
2009-04-23 10:19:00 51°13.752 2°55.724 -999 0.039532 0.225039 -0.896096
2009-04-23 10:20:00 51°13.707 2°55.816 -999 0.040047 0.228033 -0.896096
2009-04-23 10:21:00 51°13.679 2°55.902 -999 0.039841 0.226841 -0.896096
2009-04-23 10:22:00 51°13.665 2°55.953 -999 0.042002 0.239414 -0.896096
2009-04-23 10:22:59 51°13.662 2°55.958 -999 0.04087 0.232839 -0.896096
2009-04-23 10:24:00 51°13.663 2°55.959 -999 0.042825 0.244192 -0.896096
2009-04-23 10:24:59 51°13.662 2°55.958 -999 0.042208 0.240659 -0.896096
2009-04-23 10:26:00 51°13.662 2°55.958 -999 0.041488 0.23643 -0.896096
2009-04-23 10:27:00 51°13.662 2°55.958 -999 0.042002 0.239428 -0.896096
2009-04-23 10:27:59 51°13.662 2°55.958 -999 0.041488 0.236434 -0.896096
2009-04-23 10:28:59 51°13.662 2°55.959 -999 0.040664 0.231646 -0.896096
2009-04-23 10:30:00 51°13.663 2°55.96 -999 0.040561 0.231047 -0.896096
2009-04-23 10:31:00 51°13.663 2°55.959 -999 0.040561 0.231047 -0.896096
2009-04-23 10:32:01 51°13.663 2°55.96 -999 0.040767 0.232245 -0.896096
2009-04-23 10:33:00 51°13.663 2°55.96 -999 0.040561 0.231043 -0.896096
2009-04-23 10:34:00 51°13.664 2°55.961 -999 0.040459 0.230444 -0.896096
2009-04-23 10:35:00 51°13.663 2°55.959 -999 0.040459 0.230444 -0.896096
2009-04-23 10:35:59 51°13.662 2°55.959 -999 0.040561 0.231043 -0.896096
2009-04-23 10:37:00 51°13.663 2°55.961 -999 0.040767 0.23224 -0.896096
2009-04-23 10:37:59 51°13.663 2°55.961 -999 0.041179 0.234632 -0.896096
2009-04-23 10:39:00 51°13.664 2°55.962 -999 0.04087 0.232831 -0.896096
2009-04-23 10:40:01 51°13.664 2°55.962 -999 0.040459 0.230431 -0.896096
2009-04-23 10:40:59 51°13.664 2°55.961 -999 0.040459 0.230431 -0.896096
2009-04-23 10:42:00 51°13.663 2°55.959 -999 0.040664 0.231624 -0.896096
2009-04-23 10:43:00 51°13.663 2°55.96 -999 0.040356 0.22982 -0.896096
2009-04-23 10:44:00 51°13.663 2°55.96 -999 0.040561 0.231017 -0.896096
2009-04-23 10:45:00 51°13.663 2°55.96 -999 0.040253 0.229213 -0.896096
2009-04-23 10:45:59 51°13.663 2°55.96 -999 0.040561 0.231004 -0.896096
2009-04-23 10:47:01 51°13.663 2°55.961 -999 0.040767 0.232197 -0.896096
2009-04-23 10:48:00 51°13.664 2°55.961 -999 0.040356 0.229794 -0.896096
2009-04-23 10:49:03 51°13.663 2°55.961 -999 0.040561 0.230983 -0.896096
2009-04-23 10:50:03 51°13.663 2°55.96 -999 0.04087 0.232774 -0.93092
2009-04-23 10:51:03 51°13.664 2°55.96 -999 0.04087 0.232766 -0.896096
2009-04-23 10:52:03 51°13.664 2°55.96 -999 0.040767 0.232163 -0.896096
2009-04-23 10:53:01 51°13.663 2°55.96 -999 0.041179 0.234549 -0.93092
2009-04-23 10:54:00 51°13.663 2°55.959 -999 0.041282 0.235139 -0.896096
2009-04-23 10:55:00 51°13.662 2°55.959 -999 0.04087 0.232736 -0.896096
2009-04-23 10:56:00 51°13.662 2°55.959 -999 0.041076 0.233924 -0.93092
2009-04-23 10:57:00 51°13.663 2°55.959 -999 0.041385 0.235708 -0.896096
2009-04-23 10:58:00 51°13.663 2°55.959 -999 0.041076 0.233903 -0.896096
2009-04-23 10:59:00 51°13.663 2°55.959 -999 0.041076 0.233894 -0.896096
2009-04-23 11:00:00 51°13.663 2°55.959 -999 0.040973 0.233287 -0.896096
2009-04-23 11:01:01 51°13.664 2°55.959 -999 0.041385 0.235673 -0.896096
2009-04-23 11:02:02 51°13.664 2°55.96 -999 0.04087 0.232671 -0.896096
2009-04-23 11:03:00 51°13.664 2°55.96 -999 0.041076 0.233859 -0.896096
2009-04-23 11:04:00 51°13.663 2°55.959 -999 0.04087 0.232654 -0.896096
2009-04-23 11:05:00 51°13.662 2°55.958 -999 0.04087 0.232641 -0.896096
2009-04-23 11:06:00 51°13.663 2°55.959 -999 0.04087 0.232632 -0.896096
2009-04-23 11:07:00 51°13.663 2°55.959 -999 0.041179 0.234423 -0.896096
2009-04-23 11:08:00 51°13.662 2°55.959 -999 0.040973 0.233217 -0.896096
2009-04-23 11:08:59 51°13.662 2°55.959 -999 0.041179 0.234401 -0.93092
2009-04-23 11:10:00 51°13.663 2°55.959 -999 0.04087 0.232593 -0.896096
2009-04-23 11:11:00 51°13.662 2°55.959 -999 0.04087 0.23258 -0.93092
2009-04-23 11:11:59 51°13.662 2°55.959 -999 0.040973 0.23317 -0.896096
2009-04-23 11:13:01 51°13.662 2°55.959 -999 0.04087 0.232563 -0.896096
2009-04-23 11:14:03 51°13.662 2°55.959 -999 0.040664 0.231358 -0.93092
2009-04-23 11:15:03 51°13.663 2°55.959 -999 0.041076 0.233738 -0.93092
2009-04-23 11:16:02 51°13.663 2°55.959 -999 0.04087 0.232533 -0.896096
2009-04-23 11:17:03 51°13.662 2°55.959 -999 0.040664 0.23132 -0.93092
2009-04-23 11:18:02 51°13.663 2°55.959 -999 0.040459 0.230116 -0.896096
2009-04-23 11:19:00 51°13.663 2°55.959 -999 0.040664 0.231298 -0.93092
2009-04-23 11:20:00 51°13.663 2°55.96 -999 0.039532 0.22471 -0.896096
2009-04-23 11:21:00 51°13.663 2°55.959 -999 0.039841 0.226485 -0.896096
2009-04-23 11:22:00 51°13.662 2°55.96 -999 0.03696 0.209767 -0.93092
2009-04-23 11:23:00 51°13.663 2°55.956 -999 0.035519 0.201421 -0.896096
2009-04-23 11:24:04 51°13.68 2°55.899 -999 0.036342 0.206163 -0.896096
2009-04-23 11:25:04 51°13.705 2°55.824 -999 0.035416 0.200805 -0.896096
2009-04-23 11:26:04 51°13.741 2°55.747 -999 0.035313 0.200201 -0.896096
2009-04-23 11:27:04 51°13.792 2°55.678 -999 0.035107 0.199008 -0.896096
2009-04-23 11:28:04 51°13.853 2°55.627 -999 0.036136 0.204937 -0.896096
2009-04-23 11:29:03 51°13.901 2°55.611 -999 0.035004 0.198397 -0.93092
2009-04-23 11:30:02 51°13.928 2°55.617 -999 0.035107 0.198979 -0.896096
2009-04-23 11:31:00 51°13.928 2°55.612 -999 0.034078 0.193045 -0.896096
2009-04-23 11:32:00 51°13.934 2°55.592 -999 0.033975 0.192418 -0.896096
2009-04-23 11:33:00 51°13.99 2°55.534 -999 0.037268 0.211462 -0.896096
2009-04-23 11:33:59 51°14.084 2°55.452 -999 0.036034 0.204265 -0.896096
2009-04-23 11:35:00 51°14.193 2°55.341 -999 0.037165 0.210813 -0.93092
2009-04-23 11:35:59 51°14.291 2°55.191 -999 0.037989 0.21554 -0.896096
2009-04-23 11:36:59 51°14.385 2°55.006 -999 0.044678 0.254363 -0.93092
2009-04-23 11:38:00 51°14.433 2°54.791 -999 0.0384 0.217796 -0.896096
2009-04-23 11:39:00 51°14.382 2°54.563 -999 0.035931 0.203683 -0.896096
2009-04-23 11:40:00 51°14.298 2°54.332 -999 0.040973 0.23295 -0.896096
2009-04-23 11:41:00 51°14.214 2°54.094 -999 0.038606 0.219285 -0.896096
2009-04-23 11:42:00 51°14.126 2°53.862 -999 0.035931 0.203743 -0.896096
2009-04-23 11:43:00 51°14.036 2°53.634 -999 0.040561 0.230585 -0.896096
2009-04-23 11:44:00 51°13.949 2°53.405 -999 0.039018 0.221494 -0.93092
2009-04-23 11:45:00 51°13.863 2°53.175 -999 0.039121 0.222225 -0.896096
2009-04-23 11:46:00 51°13.777 2°52.946 -999 0.038606 0.219285 -0.896096
2009-04-23 11:47:00 51°13.692 2°52.715 -999 0.039224 0.222834 -0.896096
2009-04-23 11:48:00 51°13.609 2°52.479 -999 0.040356 0.229446 -0.93092
2009-04-23 11:49:00 51°13.524 2°52.241 -999 0.037063 0.210374 -0.896096
2009-04-23 11:50:00 51°13.433 2°52.007 -999 0.04828 0.275849 -0.93092
2009-04-23 11:51:00 51°13.342 2°51.77 -999 0.038606 0.219329 -0.896096
2009-04-23 11:51:59 51°13.256 2°51.535 -999 0.043134 0.24565 -0.896096
2009-04-23 11:52:59 51°13.165 2°51.301 -999 0.036548 0.207359 -0.896096
2009-04-23 11:54:00 51°13.072 2°51.065 -999 0.036034 0.204377 -0.93092
2009-04-23 11:55:00 51°12.984 2°50.827 -999 0.038297 0.217461 -0.896096
2009-04-23 11:56:00 51°12.898 2°50.583 -999 0.036651 0.207957 -0.896096
2009-04-23 11:57:00 51°12.807 2°50.342 -999 0.035519 0.20138 -0.93092
2009-04-23 11:58:00 51°12.712 2°50.103 -999 0.034593 0.196019 -0.93092
2009-04-23 11:59:00 51°12.618 2°49.864 -999 0.039327 0.223278 -0.93092
2009-04-23 12:00:00 51°12.548 2°49.606 -999 0.040767 0.231806 -0.93092
2009-04-23 12:01:00 51°12.495 2°49.338 -999 0.039121 0.222225 -0.896096
2009-04-23 12:02:00 51°12.442 2°49.068 -999 0.037474 0.212671 -0.93092
2009-04-23 12:03:00 51°12.386 2°48.8 -999 0.037474 0.212628 -0.896096
2009-04-23 12:04:00 51°12.327 2°48.535 -999 0.036034 0.204306 -0.896096
2009-04-23 12:05:00 51°12.264 2°48.275 -999 0.038812 0.220388 -0.896096
2009-04-23 12:06:00 51°12.205 2°48.012 -999 0.038503 0.218556 -0.93092
2009-04-23 12:07:00 51°12.15 2°47.748 -999 0.037474 0.212574 -0.896096
2009-04-23 12:08:00 51°12.097 2°47.498 -999 0.038297 0.217337 -0.896096
2009-04-23 12:09:00 51°12.057 2°47.395 -999 0.03521 0.199506 -0.93092
2009-04-23 12:10:00 51°12.004 2°47.392 -999 0.03449 0.195292 -0.896096
2009-04-23 12:11:00 51°11.951 2°47.369 -999 0.034902 0.197681 -0.93092
2009-04-23 12:12:00 51°11.913 2°47.327 -999 0.034799 0.197082 -0.896096
2009-04-23 12:13:00 51°11.873 2°47.268 -999 0.034799 0.19705 -0.93092
2009-04-23 12:14:00 51°11.828 2°47.201 -999 0.03449 0.195263 -0.896096
2009-04-23 12:15:00 51°11.784 2°47.134 -999 0.03521 0.199415 -0.93092
2009-04-23 12:16:00 51°11.748 2°47.063 -999 0.035313 0.199993 -0.896096
2009-04-23 12:17:00 51°11.715 2°46.991 -999 0.035107 0.198797 -0.896096
2009-04-23 12:18:00 51°11.682 2°46.919 -999 0.036239 0.205313 -0.896096
2009-04-23 12:19:00 51°11.649 2°46.848 -999 0.036342 0.20591 -0.93092
2009-04-23 12:20:00 51°11.618 2°46.785 -999 0.035622 0.201726 -0.896096
2009-04-23 12:21:00 51°11.589 2°46.724 -999 0.035725 0.202296 -0.93092
2009-04-23 12:22:00 51°11.56 2°46.664 -999 0.035107 0.198735 -0.93092
2009-04-23 12:23:00 51°11.531 2°46.604 -999 0.035107 0.198714 -0.93092
2009-04-23 12:24:00 51°11.502 2°46.544 -999 0.034387 0.194547 -0.93092
2009-04-23 12:25:00 51°11.471 2°46.485 -999 0.033667 0.19037 -0.896096
2009-04-23 12:26:00 51°11.441 2°46.426 -999 0.035519 0.201038 -0.93092
2009-04-23 12:27:00 51°11.411 2°46.368 -999 0.034593 0.195684 -0.93092
2009-04-23 12:28:00 51°11.38 2°46.31 -999 0.034902 0.197454 -0.93092
2009-04-23 12:29:00 51°11.349 2°46.253 -999 0.034593 0.195648 -0.93092
2009-04-23 12:30:00 51°11.319 2°46.195 -999 0.034078 0.19268 -0.896096
2009-04-23 12:31:00 51°11.291 2°46.133 -999 0.034902 0.197408 -0.93092
2009-04-23 12:32:00 51°11.274 2°46.062 -999 0.035828 0.202707 -0.93092
2009-04-23 12:33:00 51°11.27 2°45.984 -999 0.035416 0.200355 -0.896096
2009-04-23 12:34:00 51°11.278 2°45.905 -999 0.035416 0.2003 -0.896096
2009-04-23 12:35:00 51°11.287 2°45.825 -999 0.035725 0.202093 -0.93092
2009-04-23 12:36:00 51°11.295 2°45.744 -999 0.035828 0.202641 -0.93092
2009-04-23 12:37:00 51°11.301 2°45.665 -999 0.03521 0.19908 -0.93092
2009-04-23 12:38:00 51°11.306 2°45.585 -999 0.035313 0.199646 -0.896096
2009-04-23 12:39:00 51°11.311 2°45.505 -999 0.034387 0.1943 -0.93092
2009-04-23 12:40:00 51°11.316 2°45.423 -999 0.034696 0.196057 -0.896096
2009-04-23 12:41:00 51°11.322 2°45.341 -999 0.034078 0.192491 -0.93092
2009-04-23 12:42:00 51°11.328 2°45.26 -999 0.03449 0.194837 -0.93092
2009-04-23 12:43:00 51°11.336 2°45.18 -999 0.034284 0.193632 -0.93092
2009-04-23 12:44:00 51°11.344 2°45.102 -999 0.034387 0.194205 -0.93092
2009-04-23 12:45:00 51°11.349 2°45.026 -999 0.034696 0.195961 -0.896096
2009-04-23 12:46:00 51°11.355 2°44.953 -999 0.034593 0.195346 -0.93092
2009-04-23 12:47:00 51°11.362 2°44.882 -999 0.034284 0.193555 -0.93092
2009-04-23 12:48:00 51°11.38 2°44.816 -999 0.034387 0.194127 -0.93092
2009-04-23 12:49:00 51°11.409 2°44.778 -999 0.034387 0.194109 -0.93092
2009-04-23 12:50:00 51°11.447 2°44.757 -999 0.034078 0.192316 -0.93092
2009-04-23 12:51:00 51°11.518 2°44.749 -999 0.033152 0.186958 -0.896096
2009-04-23 12:52:00 51°11.573 2°44.795 -999 0.034387 0.194081 -0.896096
2009-04-23 12:53:00 51°11.619 2°44.856 -999 0.033667 0.189884 -0.93092
2009-04-23 12:54:00 51°11.668 2°44.955 -999 0.033872 0.191072 -0.93092
2009-04-23 12:55:00 51°11.694 2°45.04 -999 0.033461 0.188696 -0.93092
2009-04-23 12:56:00 51°11.711 2°45.108 -999 0.033975 0.191578 -0.93092
2009-04-23 12:57:00 51°11.725 2°45.163 -999 0.033667 0.18987 -0.93092
2009-04-23 12:58:00 51°11.735 2°45.209 -999 0.034078 0.192194 -0.93092
2009-04-23 12:59:00 51°11.744 2°45.25 -999 0.033872 0.190992 -0.896096
2009-04-23 13:00:00 51°11.753 2°45.29 -999 0.033255 0.187448 -0.93092
2009-04-23 13:01:00 51°11.758 2°45.387 -999 0.033872 0.190989 -0.896096
2009-04-23 13:02:00 51°11.744 2°45.542 -999 0.033255 0.187421 -0.93092
2009-04-23 13:03:00 51°11.725 2°45.723 -999 0.033049 0.186228 -0.93092
2009-04-23 13:04:00 51°11.711 2°45.909 -999 0.033358 0.188012 -0.93092
2009-04-23 13:05:00 51°11.709 2°46.098 -999 0.033358 0.187985 -0.896096
2009-04-23 13:06:00 51°11.708 2°46.29 -999 0.033358 0.187978 -0.93092
2009-04-23 13:07:00 51°11.706 2°46.48 -999 0.033152 0.186796 -0.93092
2009-04-23 13:08:00 51°11.707 2°46.668 -999 0.033152 0.186786 -0.93092
2009-04-23 13:09:00 51°11.726 2°46.852 -999 0.03377 0.190314 -0.93092
2009-04-23 13:10:00 51°11.749 2°47.037 -999 0.033152 0.186772 -0.93092
2009-04-23 13:11:00 51°11.769 2°47.22 -999 0.033667 0.189705 -0.93092
2009-04-23 13:12:00 51°11.788 2°47.405 -999 0.033358 0.187934 -0.93092
2009-04-23 13:13:00 51°11.808 2°47.59 -999 0.033667 0.189688 -0.93092
2009-04-23 13:14:00 51°11.836 2°47.772 -999 0.032946 0.18556 -0.896096
2009-04-23 13:15:00 51°11.871 2°47.952 -999 0.034078 0.192045 -0.93092
2009-04-23 13:16:00 51°11.904 2°48.134 -999 0.034387 0.193814 -0.896096
2009-04-23 13:17:00 51°11.945 2°48.31 -999 0.033872 0.190854 -0.93092
2009-04-23 13:18:00 51°11.993 2°48.482 -999 0.033975 0.191435 -0.93092
2009-04-23 13:19:00 51°12.041 2°48.654 -999 0.03377 0.190259 -0.93092
2009-04-23 13:20:00 51°12.086 2°48.828 -999 0.033461 0.188478 -0.896096
2009-04-23 13:21:00 51°12.131 2°49.004 -999 0.033358 0.18787 -0.93092
2009-04-23 13:22:00 51°12.175 2°49.179 -999 0.033049 0.186107 -0.896096
2009-04-23 13:23:00 51°12.226 2°49.349 -999 0.03377 0.190231 -0.93092
2009-04-23 13:24:00 51°12.285 2°49.511 -999 0.033461 0.188461 -0.93092
2009-04-23 13:25:00 51°12.343 2°49.674 -999 0.033358 0.187866 -0.896096
2009-04-23 13:26:00 51°12.404 2°49.836 -999 0.033358 0.18786 -0.93092
2009-04-23 13:27:00 51°12.47 2°49.99 -999 0.033461 0.188451 -0.93092
2009-04-23 13:28:00 51°12.535 2°50.144 -999 0.03377 0.190207 -0.93092
2009-04-23 13:29:00 51°12.601 2°50.298 -999 0.03377 0.190214 -0.93092
2009-04-23 13:30:00 51°12.667 2°50.452 -999 0.034078 0.191965 -0.896096
2009-04-23 13:31:00 51°12.732 2°50.606 -999 0.033872 0.190782 -0.896096
2009-04-23 13:32:00 51°12.797 2°50.76 -999 0.033152 0.186668 -0.93092
2009-04-23 13:33:00 51°12.863 2°50.914 -999 0.034387 0.193727 -0.93092
2009-04-23 13:34:00 51°12.928 2°51.07 -999 0.033975 0.191359 -0.93092
2009-04-23 13:35:00 51°12.994 2°51.225 -999 0.034284 0.193103 -0.93092
2009-04-23 13:36:00 51°13.059 2°51.379 -999 0.033872 0.190727 -0.896096
2009-04-23 13:37:00 51°13.125 2°51.533 -999 0.034284 0.193096 -0.93092
2009-04-23 13:38:00 51°13.191 2°51.686 -999 0.033872 0.190709 -0.93092
2009-04-23 13:39:00 51°13.257 2°51.839 -999 0.034078 0.191885 -0.93092
2009-04-23 13:40:00 51°13.322 2°51.993 -999 0.034284 0.193068 -0.93092
2009-04-23 13:41:00 51°13.388 2°52.146 -999 0.034593 0.194808 -0.93092
2009-04-23 13:42:00 51°13.455 2°52.3 -999 0.034284 0.193047 -0.93092
2009-04-23 13:43:00 51°13.525 2°52.464 -999 0.034593 0.194808 -0.93092
2009-04-23 13:44:00 51°13.6 2°52.635 -999 0.034078 0.19185 -0.93092
2009-04-23 13:45:00 51°13.676 2°52.808 -999 0.033975 0.191245 -0.896096
2009-04-23 13:46:00 51°13.755 2°52.978 -999 0.034181 0.192438 -0.93092
2009-04-23 13:47:00 51°13.83 2°53.152 -999 0.033975 0.191256 -0.93092
2009-04-23 13:48:00 51°13.906 2°53.326 -999 0.044472 0.251719 -0.791624
2009-04-23 13:49:00 51°13.981 2°53.502 -999 0.042002 0.237632 -0.791624
2009-04-23 13:50:00 51°14.05 2°53.684 -999 0.039738 0.224541 -0.826448
2009-04-23 13:51:00 51°14.12 2°53.865 -999 0.039018 0.220366 -0.826448
2009-04-23 13:52:00 51°14.195 2°54.042 -999 0.039018 0.220358 -0.791624
2009-04-23 13:53:00 51°14.266 2°54.223 -999 0.037577 0.212067 -0.826448
2009-04-23 13:54:00 51°14.325 2°54.415 -999 0.03696 0.208516 -0.826448
2009-04-23 13:55:00 51°14.372 2°54.612 -999 0.036033 0.203198 -0.791624
2009-04-23 13:56:00 51°14.38 2°54.811 -999 0.037886 0.213853 -0.826448
2009-04-23 13:57:00 51°14.35 2°55 -999 0.037165 0.209671 -0.826448
2009-04-23 13:58:00 51°14.287 2°55.182 -999 0.039121 0.220918 -0.826448
2009-04-23 13:59:00 51°14.206 2°55.327 -999 0.037063 0.209088 -0.826448
2009-04-23 14:00:00 51°14.11 2°55.426 -999 0.035622 0.200791 -0.826448
2009-04-23 14:01:00 51°14.004 2°55.504 -999 0.034284 0.193128 -0.826448
2009-04-23 14:02:00 51°13.897 2°55.58 -999 0.034901 0.196656 -0.826448
2009-04-23 14:03:00 51°13.801 2°55.654 -999 0.033975 0.191352 -0.826448
2009-04-23 14:04:00 51°13.736 2°55.748 -999 0.033872 0.190751 -0.826448
2009-04-23 14:05:00 51°13.688 2°55.847 -999 0.034078 0.191937 -0.826448
2009-04-23 14:06:00 51°13.668 2°55.932 -999 0.034387 0.193695 -0.826448
2009-04-23 14:07:03 51°13.662 2°55.957 -999 0.033461 0.188396 -0.826448